sensor_id;sensor_type;location;lat;lon;timestamp;P1;durP1;ratioP1;P2;durP2;ratioP2
819;SDS011;392;48.838;2.322;2023-05-18T00:00:02;9.90;;;4.03;;
819;SDS011;392;48.838;2.322;2023-05-18T00:02:36;4.20;;;3.80;;
819;SDS011;392;48.838;2.322;2023-05-18T00:05:03;4.60;;;4.20;;
819;SDS011;392;48.838;2.322;2023-05-18T00:07:33;5.50;;;4.13;;
819;SDS011;392;48.838;2.322;2023-05-18T00:10:00;4.40;;;3.70;;
819;SDS011;392;48.838;2.322;2023-05-18T00:12:28;5.17;;;4.17;;
819;SDS011;392;48.838;2.322;2023-05-18T00:14:56;4.10;;;3.80;;
819;SDS011;392;48.838;2.322;2023-05-18T00:17:24;6.43;;;3.80;;
819;SDS011;392;48.838;2.322;2023-05-18T00:19:51;4.03;;;3.33;;
819;SDS011;392;48.838;2.322;2023-05-18T00:22:18;4.20;;;3.80;;
819;SDS011;392;48.838;2.322;2023-05-18T00:24:46;4.70;;;4.27;;
819;SDS011;392;48.838;2.322;2023-05-18T00:27:14;4.53;;;3.50;;
819;SDS011;392;48.838;2.322;2023-05-18T00:29:41;3.63;;;3.43;;
819;SDS011;392;48.838;2.322;2023-05-18T00:32:12;3.63;;;3.33;;
819;SDS011;392;48.838;2.322;2023-05-18T00:34:39;4.13;;;3.60;;
819;SDS011;392;48.838;2.322;2023-05-18T00:37:06;4.43;;;3.70;;
819;SDS011;392;48.838;2.322;2023-05-18T00:39:34;4.60;;;4.20;;
819;SDS011;392;48.838;2.322;2023-05-18T00:42:01;3.50;;;3.20;;
819;SDS011;392;48.838;2.322;2023-05-18T00:44:29;5.37;;;3.83;;
819;SDS011;392;48.838;2.322;2023-05-18T00:46:56;4.10;;;3.60;;
819;SDS011;392;48.838;2.322;2023-05-18T00:49:25;3.47;;;3.20;;
819;SDS011;392;48.838;2.322;2023-05-18T00:51:53;3.60;;;3.30;;
819;SDS011;392;48.838;2.322;2023-05-18T00:54:23;4.40;;;4.00;;
819;SDS011;392;48.838;2.322;2023-05-18T00:56:51;3.80;;;3.50;;
819;SDS011;392;48.838;2.322;2023-05-18T00:59:18;3.83;;;3.40;;
819;SDS011;392;48.838;2.322;2023-05-18T01:01:46;4.27;;;3.73;;
819;SDS011;392;48.838;2.322;2023-05-18T01:04:13;3.87;;;3.57;;
819;SDS011;392;48.838;2.322;2023-05-18T01:06:42;4.20;;;3.63;;
819;SDS011;392;48.838;2.322;2023-05-18T01:09:10;4.07;;;3.63;;
819;SDS011;392;48.838;2.322;2023-05-18T01:11:43;5.33;;;4.53;;
819;SDS011;392;48.838;2.322;2023-05-18T01:14:23;4.87;;;4.47;;
819;SDS011;392;48.838;2.322;2023-05-18T01:17:00;3.97;;;3.67;;
819;SDS011;392;48.838;2.322;2023-05-18T01:19:42;4.50;;;3.63;;
819;SDS011;392;48.838;2.322;2023-05-18T01:22:49;4.97;;;4.47;;
819;SDS011;392;48.838;2.322;2023-05-18T01:26:06;4.87;;;4.47;;
819;SDS011;392;48.838;2.322;2023-05-18T01:28:42;4.87;;;4.37;;
819;SDS011;392;48.838;2.322;2023-05-18T01:31:12;4.60;;;4.20;;
819;SDS011;392;48.838;2.322;2023-05-18T01:33:40;4.77;;;4.30;;
819;SDS011;392;48.838;2.322;2023-05-18T01:36:08;6.50;;;4.40;;
819;SDS011;392;48.838;2.322;2023-05-18T01:38:35;6.20;;;4.47;;
819;SDS011;392;48.838;2.322;2023-05-18T01:41:07;6.23;;;4.27;;
819;SDS011;392;48.838;2.322;2023-05-18T01:43:46;5.43;;;4.00;;
819;SDS011;392;48.838;2.322;2023-05-18T01:46:34;4.23;;;3.83;;
819;SDS011;392;48.838;2.322;2023-05-18T01:49:10;4.43;;;4.10;;
819;SDS011;392;48.838;2.322;2023-05-18T01:51:45;4.33;;;3.93;;
819;SDS011;392;48.838;2.322;2023-05-18T01:54:16;4.97;;;4.00;;
819;SDS011;392;48.838;2.322;2023-05-18T01:56:46;4.30;;;4.00;;
819;SDS011;392;48.838;2.322;2023-05-18T01:59:16;6.67;;;4.30;;
819;SDS011;392;48.838;2.322;2023-05-18T02:01:44;4.30;;;3.90;;
819;SDS011;392;48.838;2.322;2023-05-18T02:04:11;5.20;;;4.70;;
819;SDS011;392;48.838;2.322;2023-05-18T02:06:38;5.50;;;5.10;;
819;SDS011;392;48.838;2.322;2023-05-18T02:09:06;5.13;;;4.50;;
819;SDS011;392;48.838;2.322;2023-05-18T02:11:34;6.97;;;5.10;;
819;SDS011;392;48.838;2.322;2023-05-18T02:14:03;5.37;;;4.87;;
819;SDS011;392;48.838;2.322;2023-05-18T02:16:30;6.47;;;5.60;;
819;SDS011;392;48.838;2.322;2023-05-18T02:18:58;5.17;;;4.67;;
819;SDS011;392;48.838;2.322;2023-05-18T02:21:25;6.67;;;4.87;;
819;SDS011;392;48.838;2.322;2023-05-18T02:23:52;5.20;;;4.40;;
819;SDS011;392;48.838;2.322;2023-05-18T02:26:20;5.17;;;4.73;;
819;SDS011;392;48.838;2.322;2023-05-18T02:28:51;4.03;;;3.70;;
819;SDS011;392;48.838;2.322;2023-05-18T02:31:19;4.43;;;4.03;;
819;SDS011;392;48.838;2.322;2023-05-18T02:33:47;6.43;;;4.57;;
819;SDS011;392;48.838;2.322;2023-05-18T02:36:14;7.77;;;5.30;;
819;SDS011;392;48.838;2.322;2023-05-18T02:38:43;5.60;;;5.10;;
819;SDS011;392;48.838;2.322;2023-05-18T02:41:10;5.10;;;4.70;;
819;SDS011;392;48.838;2.322;2023-05-18T02:43:38;6.10;;;5.40;;
819;SDS011;392;48.838;2.322;2023-05-18T02:46:06;6.00;;;5.07;;
819;SDS011;392;48.838;2.322;2023-05-18T02:48:35;5.17;;;4.43;;
819;SDS011;392;48.838;2.322;2023-05-18T02:51:03;5.37;;;4.87;;
819;SDS011;392;48.838;2.322;2023-05-18T02:53:31;7.60;;;4.97;;
819;SDS011;392;48.838;2.322;2023-05-18T02:56:05;7.50;;;6.17;;
819;SDS011;392;48.838;2.322;2023-05-18T02:58:42;6.60;;;5.50;;
819;SDS011;392;48.838;2.322;2023-05-18T03:01:19;5.30;;;4.60;;
819;SDS011;392;48.838;2.322;2023-05-18T03:03:52;5.30;;;4.70;;
819;SDS011;392;48.838;2.322;2023-05-18T03:06:21;5.40;;;4.90;;
819;SDS011;392;48.838;2.322;2023-05-18T03:08:52;7.33;;;5.73;;
819;SDS011;392;48.838;2.322;2023-05-18T03:11:23;8.57;;;5.60;;
819;SDS011;392;48.838;2.322;2023-05-18T03:13:51;7.37;;;5.37;;
819;SDS011;392;48.838;2.322;2023-05-18T03:16:19;6.30;;;5.50;;
819;SDS011;392;48.838;2.322;2023-05-18T03:18:53;8.80;;;5.70;;
819;SDS011;392;48.838;2.322;2023-05-18T03:21:24;9.10;;;6.10;;
819;SDS011;392;48.838;2.322;2023-05-18T03:23:59;8.43;;;5.80;;
819;SDS011;392;48.838;2.322;2023-05-18T03:26:26;6.87;;;6.10;;
819;SDS011;392;48.838;2.322;2023-05-18T03:28:55;6.60;;;6.00;;
819;SDS011;392;48.838;2.322;2023-05-18T03:31:23;7.30;;;5.80;;
819;SDS011;392;48.838;2.322;2023-05-18T03:33:53;8.33;;;5.77;;
819;SDS011;392;48.838;2.322;2023-05-18T03:36:21;7.40;;;6.67;;
819;SDS011;392;48.838;2.322;2023-05-18T03:38:51;9.00;;;6.27;;
819;SDS011;392;48.838;2.322;2023-05-18T03:41:18;6.40;;;5.80;;
819;SDS011;392;48.838;2.322;2023-05-18T03:43:46;7.53;;;6.60;;
819;SDS011;392;48.838;2.322;2023-05-18T03:46:15;7.23;;;6.53;;
819;SDS011;392;48.838;2.322;2023-05-18T03:48:42;8.20;;;7.40;;
819;SDS011;392;48.838;2.322;2023-05-18T03:51:11;8.13;;;6.67;;
819;SDS011;392;48.838;2.322;2023-05-18T03:53:39;9.57;;;6.83;;
819;SDS011;392;48.838;2.322;2023-05-18T03:56:07;8.00;;;6.53;;
819;SDS011;392;48.838;2.322;2023-05-18T03:58:34;12.27;;;7.87;;
819;SDS011;392;48.838;2.322;2023-05-18T04:01:02;7.73;;;6.30;;
819;SDS011;392;48.838;2.322;2023-05-18T04:03:30;7.80;;;7.00;;
819;SDS011;392;48.838;2.322;2023-05-18T04:05:58;9.23;;;7.20;;
819;SDS011;392;48.838;2.322;2023-05-18T04:08:27;8.07;;;6.87;;
819;SDS011;392;48.838;2.322;2023-05-18T04:10:54;7.60;;;6.20;;
819;SDS011;392;48.838;2.322;2023-05-18T04:13:22;8.70;;;6.30;;
819;SDS011;392;48.838;2.322;2023-05-18T04:15:49;7.73;;;6.90;;
819;SDS011;392;48.838;2.322;2023-05-18T04:18:17;9.23;;;6.40;;
819;SDS011;392;48.838;2.322;2023-05-18T04:20:44;9.60;;;7.13;;
819;SDS011;392;48.838;2.322;2023-05-18T04:23:11;6.97;;;5.97;;
819;SDS011;392;48.838;2.322;2023-05-18T04:25:41;7.70;;;6.90;;
819;SDS011;392;48.838;2.322;2023-05-18T04:28:08;10.23;;;7.47;;
819;SDS011;392;48.838;2.322;2023-05-18T04:30:36;7.63;;;6.80;;
819;SDS011;392;48.838;2.322;2023-05-18T04:33:04;9.47;;;6.90;;
819;SDS011;392;48.838;2.322;2023-05-18T04:35:31;9.03;;;6.97;;
819;SDS011;392;48.838;2.322;2023-05-18T04:37:59;7.33;;;6.30;;
819;SDS011;392;48.838;2.322;2023-05-18T04:40:27;8.40;;;6.57;;
819;SDS011;392;48.838;2.322;2023-05-18T04:42:59;8.60;;;7.00;;
819;SDS011;392;48.838;2.322;2023-05-18T04:45:30;8.23;;;6.80;;
819;SDS011;392;48.838;2.322;2023-05-18T04:47:59;7.90;;;7.10;;
819;SDS011;392;48.838;2.322;2023-05-18T04:50:27;7.37;;;6.77;;
819;SDS011;392;48.838;2.322;2023-05-18T04:52:55;8.07;;;7.23;;
819;SDS011;392;48.838;2.322;2023-05-18T04:55:26;8.00;;;7.20;;
819;SDS011;392;48.838;2.322;2023-05-18T04:57:59;7.40;;;6.70;;
819;SDS011;392;48.838;2.322;2023-05-18T05:00:28;8.13;;;7.30;;
819;SDS011;392;48.838;2.322;2023-05-18T05:02:56;8.50;;;6.37;;
819;SDS011;392;48.838;2.322;2023-05-18T05:05:25;8.20;;;7.40;;
819;SDS011;392;48.838;2.322;2023-05-18T05:07:52;7.73;;;6.97;;
819;SDS011;392;48.838;2.322;2023-05-18T05:10:21;10.90;;;7.47;;
819;SDS011;392;48.838;2.322;2023-05-18T05:12:48;7.63;;;6.90;;
819;SDS011;392;48.838;2.322;2023-05-18T05:15:17;7.43;;;6.73;;
819;SDS011;392;48.838;2.322;2023-05-18T05:17:47;8.93;;;7.50;;
819;SDS011;392;48.838;2.322;2023-05-18T05:20:15;7.60;;;6.80;;
819;SDS011;392;48.838;2.322;2023-05-18T05:22:43;10.70;;;7.37;;
819;SDS011;392;48.838;2.322;2023-05-18T05:25:14;9.10;;;8.17;;
819;SDS011;392;48.838;2.322;2023-05-18T05:27:41;9.43;;;6.80;;
819;SDS011;392;48.838;2.322;2023-05-18T05:30:09;11.37;;;7.57;;
819;SDS011;392;48.838;2.322;2023-05-18T05:32:39;8.43;;;7.53;;
819;SDS011;392;48.838;2.322;2023-05-18T05:35:07;10.60;;;7.37;;
819;SDS011;392;48.838;2.322;2023-05-18T05:37:35;11.13;;;7.20;;
819;SDS011;392;48.838;2.322;2023-05-18T05:40:03;8.37;;;7.33;;
819;SDS011;392;48.838;2.322;2023-05-18T05:42:39;9.00;;;7.60;;
819;SDS011;392;48.838;2.322;2023-05-18T05:45:08;9.50;;;7.23;;
819;SDS011;392;48.838;2.322;2023-05-18T05:47:46;9.30;;;6.83;;
819;SDS011;392;48.838;2.322;2023-05-18T05:50:16;10.60;;;7.57;;
819;SDS011;392;48.838;2.322;2023-05-18T05:52:45;9.50;;;7.63;;
819;SDS011;392;48.838;2.322;2023-05-18T05:55:13;8.70;;;7.70;;
819;SDS011;392;48.838;2.322;2023-05-18T05:57:40;9.73;;;8.73;;
819;SDS011;392;48.838;2.322;2023-05-18T06:00:08;9.80;;;7.23;;
819;SDS011;392;48.838;2.322;2023-05-18T06:02:54;9.37;;;6.93;;
819;SDS011;392;48.838;2.322;2023-05-18T06:05:32;9.77;;;7.20;;
819;SDS011;392;48.838;2.322;2023-05-18T06:08:00;10.47;;;7.03;;
819;SDS011;392;48.838;2.322;2023-05-18T06:10:28;9.73;;;7.03;;
819;SDS011;392;48.838;2.322;2023-05-18T06:12:55;10.57;;;6.93;;
819;SDS011;392;48.838;2.322;2023-05-18T06:15:30;10.13;;;7.37;;
819;SDS011;392;48.838;2.322;2023-05-18T06:17:58;8.33;;;7.10;;
819;SDS011;392;48.838;2.322;2023-05-18T06:20:26;11.33;;;7.13;;
819;SDS011;392;48.838;2.322;2023-05-18T06:22:53;9.30;;;6.90;;
819;SDS011;392;48.838;2.322;2023-05-18T06:25:28;10.10;;;7.53;;
819;SDS011;392;48.838;2.322;2023-05-18T06:28:22;10.20;;;7.20;;
819;SDS011;392;48.838;2.322;2023-05-18T06:30:56;9.73;;;6.97;;
819;SDS011;392;48.838;2.322;2023-05-18T06:33:49;8.23;;;6.60;;
819;SDS011;392;48.838;2.322;2023-05-18T06:36:16;7.07;;;6.20;;
819;SDS011;392;48.838;2.322;2023-05-18T06:38:43;7.77;;;6.40;;
819;SDS011;392;48.838;2.322;2023-05-18T06:41:11;8.80;;;6.40;;
819;SDS011;392;48.838;2.322;2023-05-18T06:43:38;10.50;;;6.57;;
819;SDS011;392;48.838;2.322;2023-05-18T06:46:20;8.80;;;6.93;;
819;SDS011;392;48.838;2.322;2023-05-18T06:49:00;9.70;;;6.80;;
819;SDS011;392;48.838;2.322;2023-05-18T06:51:27;9.63;;;6.70;;
819;SDS011;392;48.838;2.322;2023-05-18T06:53:55;10.30;;;6.90;;
819;SDS011;392;48.838;2.322;2023-05-18T06:56:24;7.20;;;6.60;;
819;SDS011;392;48.838;2.322;2023-05-18T06:58:51;12.73;;;7.53;;
819;SDS011;392;48.838;2.322;2023-05-18T07:01:19;8.07;;;7.27;;
819;SDS011;392;48.838;2.322;2023-05-18T07:03:47;8.70;;;7.80;;
819;SDS011;392;48.838;2.322;2023-05-18T07:06:16;8.27;;;7.00;;
819;SDS011;392;48.838;2.322;2023-05-18T07:08:43;10.00;;;7.50;;
819;SDS011;392;48.838;2.322;2023-05-18T07:11:11;8.13;;;7.13;;
819;SDS011;392;48.838;2.322;2023-05-18T07:13:39;8.20;;;7.40;;
819;SDS011;392;48.838;2.322;2023-05-18T07:16:07;9.83;;;6.27;;
819;SDS011;392;48.838;2.322;2023-05-18T07:18:35;9.20;;;7.70;;
819;SDS011;392;48.838;2.322;2023-05-18T07:21:03;8.93;;;7.00;;
819;SDS011;392;48.838;2.322;2023-05-18T07:23:32;7.33;;;6.30;;
819;SDS011;392;48.838;2.322;2023-05-18T07:26:00;8.47;;;7.57;;
819;SDS011;392;48.838;2.322;2023-05-18T07:28:27;9.23;;;7.73;;
819;SDS011;392;48.838;2.322;2023-05-18T07:30:55;8.80;;;7.90;;
819;SDS011;392;48.838;2.322;2023-05-18T07:33:22;7.73;;;6.93;;
819;SDS011;392;48.838;2.322;2023-05-18T07:35:50;7.20;;;6.50;;
819;SDS011;392;48.838;2.322;2023-05-18T07:38:17;8.23;;;6.40;;
819;SDS011;392;48.838;2.322;2023-05-18T07:40:46;9.30;;;7.77;;
819;SDS011;392;48.838;2.322;2023-05-18T07:43:13;7.37;;;6.73;;
819;SDS011;392;48.838;2.322;2023-05-18T07:45:40;7.80;;;7.00;;
819;SDS011;392;48.838;2.322;2023-05-18T07:48:08;8.00;;;7.20;;
819;SDS011;392;48.838;2.322;2023-05-18T07:50:36;7.83;;;7.03;;
819;SDS011;392;48.838;2.322;2023-05-18T07:53:03;10.57;;;8.23;;
819;SDS011;392;48.838;2.322;2023-05-18T07:55:30;9.00;;;8.10;;
819;SDS011;392;48.838;2.322;2023-05-18T07:57:59;9.27;;;8.10;;
819;SDS011;392;48.838;2.322;2023-05-18T08:00:27;8.23;;;7.20;;
819;SDS011;392;48.838;2.322;2023-05-18T08:02:55;8.97;;;8.20;;
819;SDS011;392;48.838;2.322;2023-05-18T08:05:25;8.80;;;7.63;;
819;SDS011;392;48.838;2.322;2023-05-18T08:07:52;8.00;;;7.20;;
819;SDS011;392;48.838;2.322;2023-05-18T08:10:20;8.73;;;7.87;;
819;SDS011;392;48.838;2.322;2023-05-18T08:12:47;8.87;;;8.00;;
819;SDS011;392;48.838;2.322;2023-05-18T08:15:16;8.73;;;7.83;;
819;SDS011;392;48.838;2.322;2023-05-18T08:17:43;8.40;;;7.60;;
819;SDS011;392;48.838;2.322;2023-05-18T08:20:11;9.23;;;7.77;;
819;SDS011;392;48.838;2.322;2023-05-18T08:22:39;10.27;;;7.87;;
819;SDS011;392;48.838;2.322;2023-05-18T08:25:06;9.33;;;8.40;;
819;SDS011;392;48.838;2.322;2023-05-18T08:27:35;11.47;;;7.73;;
819;SDS011;392;48.838;2.322;2023-05-18T08:30:03;7.17;;;6.50;;
819;SDS011;392;48.838;2.322;2023-05-18T08:32:32;11.00;;;7.63;;
819;SDS011;392;48.838;2.322;2023-05-18T08:35:02;9.07;;;8.27;;
819;SDS011;392;48.838;2.322;2023-05-18T08:37:30;8.90;;;8.10;;
819;SDS011;392;48.838;2.322;2023-05-18T08:39:57;9.23;;;7.90;;
819;SDS011;392;48.838;2.322;2023-05-18T08:42:28;10.30;;;7.43;;
819;SDS011;392;48.838;2.322;2023-05-18T08:45:01;8.70;;;7.00;;
819;SDS011;392;48.838;2.322;2023-05-18T08:47:39;9.37;;;7.20;;
819;SDS011;392;48.838;2.322;2023-05-18T08:50:07;7.73;;;7.03;;
819;SDS011;392;48.838;2.322;2023-05-18T08:52:40;9.63;;;7.23;;
819;SDS011;392;48.838;2.322;2023-05-18T08:55:14;9.90;;;7.37;;
819;SDS011;392;48.838;2.322;2023-05-18T08:57:43;9.20;;;7.27;;
819;SDS011;392;48.838;2.322;2023-05-18T09:00:20;8.30;;;7.10;;
819;SDS011;392;48.838;2.322;2023-05-18T09:02:50;7.67;;;6.97;;
819;SDS011;392;48.838;2.322;2023-05-18T09:05:17;7.93;;;6.50;;
819;SDS011;392;48.838;2.322;2023-05-18T09:07:46;8.27;;;7.10;;
819;SDS011;392;48.838;2.322;2023-05-18T09:10:16;8.10;;;7.30;;
819;SDS011;392;48.838;2.322;2023-05-18T09:12:44;9.77;;;7.40;;
819;SDS011;392;48.838;2.322;2023-05-18T09:15:14;8.30;;;7.40;;
819;SDS011;392;48.838;2.322;2023-05-18T09:17:42;8.77;;;7.73;;
819;SDS011;392;48.838;2.322;2023-05-18T09:20:11;14.10;;;8.50;;
819;SDS011;392;48.838;2.322;2023-05-18T09:22:38;9.40;;;8.53;;
819;SDS011;392;48.838;2.322;2023-05-18T09:25:07;9.63;;;8.53;;
819;SDS011;392;48.838;2.322;2023-05-18T09:27:35;9.00;;;8.10;;
819;SDS011;392;48.838;2.322;2023-05-18T09:30:03;10.30;;;9.20;;
819;SDS011;392;48.838;2.322;2023-05-18T09:32:35;10.40;;;9.40;;
819;SDS011;392;48.838;2.322;2023-05-18T09:35:03;9.80;;;9.00;;
819;SDS011;392;48.838;2.322;2023-05-18T09:37:33;10.17;;;9.27;;
819;SDS011;392;48.838;2.322;2023-05-18T09:40:02;9.93;;;8.97;;
819;SDS011;392;48.838;2.322;2023-05-18T09:42:35;10.03;;;8.77;;
819;SDS011;392;48.838;2.322;2023-05-18T09:45:14;11.97;;;8.80;;
819;SDS011;392;48.838;2.322;2023-05-18T09:47:43;9.40;;;8.50;;
819;SDS011;392;48.838;2.322;2023-05-18T09:50:11;9.33;;;8.53;;
819;SDS011;392;48.838;2.322;2023-05-18T09:52:42;9.67;;;8.80;;
819;SDS011;392;48.838;2.322;2023-05-18T09:55:11;8.63;;;7.83;;
819;SDS011;392;48.838;2.322;2023-05-18T09:57:41;9.83;;;8.33;;
819;SDS011;392;48.838;2.322;2023-05-18T10:00:10;9.53;;;8.60;;
819;SDS011;392;48.838;2.322;2023-05-18T10:02:41;10.07;;;8.93;;
819;SDS011;392;48.838;2.322;2023-05-18T10:05:19;8.63;;;7.80;;
819;SDS011;392;48.838;2.322;2023-05-18T10:07:50;9.80;;;8.90;;
819;SDS011;392;48.838;2.322;2023-05-18T10:10:18;11.50;;;9.83;;
819;SDS011;392;48.838;2.322;2023-05-18T10:12:49;10.47;;;9.53;;
819;SDS011;392;48.838;2.322;2023-05-18T10:15:17;10.60;;;9.70;;
819;SDS011;392;48.838;2.322;2023-05-18T10:17:47;10.47;;;9.47;;
819;SDS011;392;48.838;2.322;2023-05-18T10:20:17;11.30;;;10.40;;
819;SDS011;392;48.838;2.322;2023-05-18T10:22:47;11.83;;;10.87;;
819;SDS011;392;48.838;2.322;2023-05-18T10:25:17;12.33;;;11.33;;
819;SDS011;392;48.838;2.322;2023-05-18T10:27:47;11.13;;;10.43;;
819;SDS011;392;48.838;2.322;2023-05-18T10:30:16;11.77;;;10.57;;
819;SDS011;392;48.838;2.322;2023-05-18T10:32:43;10.53;;;9.83;;
819;SDS011;392;48.838;2.322;2023-05-18T10:35:12;11.57;;;10.57;;
819;SDS011;392;48.838;2.322;2023-05-18T10:37:41;12.27;;;11.20;;
819;SDS011;392;48.838;2.322;2023-05-18T10:40:14;11.57;;;10.63;;
819;SDS011;392;48.838;2.322;2023-05-18T10:42:43;12.40;;;11.23;;
819;SDS011;392;48.838;2.322;2023-05-18T10:45:12;11.93;;;10.83;;
819;SDS011;392;48.838;2.322;2023-05-18T10:47:42;11.73;;;10.80;;
819;SDS011;392;48.838;2.322;2023-05-18T10:50:10;10.90;;;10.10;;
819;SDS011;392;48.838;2.322;2023-05-18T10:52:41;12.03;;;11.03;;
819;SDS011;392;48.838;2.322;2023-05-18T10:55:10;12.30;;;11.10;;
819;SDS011;392;48.838;2.322;2023-05-18T10:57:39;11.63;;;10.73;;
819;SDS011;392;48.838;2.322;2023-05-18T11:00:11;11.67;;;10.67;;
819;SDS011;392;48.838;2.322;2023-05-18T11:02:40;11.33;;;10.37;;
819;SDS011;392;48.838;2.322;2023-05-18T11:05:09;11.67;;;10.60;;
819;SDS011;392;48.838;2.322;2023-05-18T11:07:37;11.90;;;11.00;;
819;SDS011;392;48.838;2.322;2023-05-18T11:10:07;12.70;;;11.50;;
819;SDS011;392;48.838;2.322;2023-05-18T11:12:38;11.23;;;10.40;;
819;SDS011;392;48.838;2.322;2023-05-18T11:15:07;11.20;;;10.40;;
819;SDS011;392;48.838;2.322;2023-05-18T11:17:35;11.00;;;10.10;;
819;SDS011;392;48.838;2.322;2023-05-18T11:20:12;11.23;;;10.33;;
819;SDS011;392;48.838;2.322;2023-05-18T11:22:46;12.07;;;11.17;;
819;SDS011;392;48.838;2.322;2023-05-18T11:28:08;11.93;;;11.17;;
819;SDS011;392;48.838;2.322;2023-05-18T11:30:49;10.90;;;10.10;;
819;SDS011;392;48.838;2.322;2023-05-18T11:33:21;10.60;;;9.80;;
819;SDS011;392;48.838;2.322;2023-05-18T11:35:54;11.30;;;10.30;;
819;SDS011;392;48.838;2.322;2023-05-18T11:38:45;9.70;;;9.00;;
819;SDS011;392;48.838;2.322;2023-05-18T11:41:28;10.93;;;10.13;;
819;SDS011;392;48.838;2.322;2023-05-18T11:44:04;10.80;;;10.00;;
819;SDS011;392;48.838;2.322;2023-05-18T11:46:51;13.03;;;12.03;;
819;SDS011;392;48.838;2.322;2023-05-18T11:49:21;14.37;;;13.37;;
819;SDS011;392;48.838;2.322;2023-05-18T11:54:36;13.17;;;12.17;;
819;SDS011;392;48.838;2.322;2023-05-18T11:57:07;13.67;;;12.50;;
819;SDS011;392;48.838;2.322;2023-05-18T11:59:38;13.00;;;12.17;;
819;SDS011;392;48.838;2.322;2023-05-18T12:02:07;13.10;;;12.20;;
819;SDS011;392;48.838;2.322;2023-05-18T12:04:43;11.27;;;10.30;;
819;SDS011;392;48.838;2.322;2023-05-18T12:07:13;11.37;;;10.67;;
819;SDS011;392;48.838;2.322;2023-05-18T12:09:41;11.27;;;10.67;;
819;SDS011;392;48.838;2.322;2023-05-18T12:12:10;11.90;;;11.10;;
819;SDS011;392;48.838;2.322;2023-05-18T12:14:42;12.07;;;11.20;;
819;SDS011;392;48.838;2.322;2023-05-18T12:17:10;12.90;;;11.90;;
819;SDS011;392;48.838;2.322;2023-05-18T12:19:41;12.40;;;11.53;;
819;SDS011;392;48.838;2.322;2023-05-18T12:22:09;13.50;;;12.50;;
819;SDS011;392;48.838;2.322;2023-05-18T12:24:37;12.60;;;11.80;;
819;SDS011;392;48.838;2.322;2023-05-18T12:27:05;11.57;;;10.87;;
819;SDS011;392;48.838;2.322;2023-05-18T12:29:36;11.60;;;10.80;;
819;SDS011;392;48.838;2.322;2023-05-18T12:32:07;12.23;;;11.30;;
819;SDS011;392;48.838;2.322;2023-05-18T12:34:36;9.90;;;9.20;;
819;SDS011;392;48.838;2.322;2023-05-18T12:37:04;9.70;;;9.00;;
819;SDS011;392;48.838;2.322;2023-05-18T12:39:33;10.60;;;9.87;;
819;SDS011;392;48.838;2.322;2023-05-18T12:42:08;10.00;;;9.20;;
819;SDS011;392;48.838;2.322;2023-05-18T12:44:37;11.57;;;10.57;;
819;SDS011;392;48.838;2.322;2023-05-18T12:47:04;6.03;;;5.40;;
819;SDS011;392;48.838;2.322;2023-05-18T12:49:36;10.40;;;9.40;;
819;SDS011;392;48.838;2.322;2023-05-18T12:52:09;11.00;;;10.23;;
819;SDS011;392;48.838;2.322;2023-05-18T12:54:50;10.87;;;9.97;;
819;SDS011;392;48.838;2.322;2023-05-18T12:57:24;10.90;;;10.07;;
819;SDS011;392;48.838;2.322;2023-05-18T12:59:52;10.47;;;9.70;;
819;SDS011;392;48.838;2.322;2023-05-18T13:02:25;9.03;;;8.43;;
819;SDS011;392;48.838;2.322;2023-05-18T13:05:04;9.07;;;8.23;;
819;SDS011;392;48.838;2.322;2023-05-18T13:07:37;8.97;;;8.27;;
819;SDS011;392;48.838;2.322;2023-05-18T13:10:06;10.43;;;9.53;;
819;SDS011;392;48.838;2.322;2023-05-18T13:12:39;8.57;;;7.87;;
819;SDS011;392;48.838;2.322;2023-05-18T13:15:09;9.63;;;8.73;;
819;SDS011;392;48.838;2.322;2023-05-18T13:17:46;9.43;;;8.73;;
819;SDS011;392;48.838;2.322;2023-05-18T13:20:19;9.30;;;8.60;;
819;SDS011;392;48.838;2.322;2023-05-18T13:22:48;8.77;;;7.97;;
819;SDS011;392;48.838;2.322;2023-05-18T13:25:15;9.60;;;8.70;;
819;SDS011;392;48.838;2.322;2023-05-18T13:27:43;9.50;;;8.70;;
819;SDS011;392;48.838;2.322;2023-05-18T13:30:12;10.30;;;8.90;;
819;SDS011;392;48.838;2.322;2023-05-18T13:32:41;9.40;;;8.67;;
819;SDS011;392;48.838;2.322;2023-05-18T13:35:08;9.67;;;8.87;;
819;SDS011;392;48.838;2.322;2023-05-18T13:37:36;8.70;;;8.17;;
819;SDS011;392;48.838;2.322;2023-05-18T13:40:04;9.43;;;8.53;;
819;SDS011;392;48.838;2.322;2023-05-18T13:42:33;9.00;;;8.20;;
819;SDS011;392;48.838;2.322;2023-05-18T13:45:00;8.47;;;7.67;;
819;SDS011;392;48.838;2.322;2023-05-18T13:47:27;8.57;;;7.77;;
819;SDS011;392;48.838;2.322;2023-05-18T13:49:56;9.30;;;8.50;;
819;SDS011;392;48.838;2.322;2023-05-18T13:52:24;9.60;;;7.90;;
819;SDS011;392;48.838;2.322;2023-05-18T13:54:51;9.40;;;8.60;;
819;SDS011;392;48.838;2.322;2023-05-18T13:57:19;9.60;;;8.70;;
819;SDS011;392;48.838;2.322;2023-05-18T13:59:48;8.63;;;7.83;;
819;SDS011;392;48.838;2.322;2023-05-18T14:02:15;9.57;;;8.67;;
819;SDS011;392;48.838;2.322;2023-05-18T14:04:42;7.80;;;7.20;;
819;SDS011;392;48.838;2.322;2023-05-18T14:07:11;17.33;;;7.90;;
819;SDS011;392;48.838;2.322;2023-05-18T14:09:38;8.10;;;7.40;;
819;SDS011;392;48.838;2.322;2023-05-18T14:12:06;7.90;;;7.10;;
819;SDS011;392;48.838;2.322;2023-05-18T14:14:35;7.77;;;7.00;;
819;SDS011;392;48.838;2.322;2023-05-18T14:17:02;7.50;;;6.80;;
819;SDS011;392;48.838;2.322;2023-05-18T14:19:29;7.20;;;6.30;;
819;SDS011;392;48.838;2.322;2023-05-18T14:21:57;6.57;;;6.07;;
819;SDS011;392;48.838;2.322;2023-05-18T14:24:25;7.67;;;6.00;;
819;SDS011;392;48.838;2.322;2023-05-18T14:26:52;7.03;;;6.40;;
819;SDS011;392;48.838;2.322;2023-05-18T14:29:20;8.60;;;5.43;;
819;SDS011;392;48.838;2.322;2023-05-18T14:31:47;6.47;;;5.87;;
819;SDS011;392;48.838;2.322;2023-05-18T14:34:15;7.77;;;6.83;;
819;SDS011;392;48.838;2.322;2023-05-18T14:36:42;8.00;;;6.13;;
819;SDS011;392;48.838;2.322;2023-05-18T14:39:09;6.00;;;5.50;;
819;SDS011;392;48.838;2.322;2023-05-18T14:41:38;7.03;;;6.33;;
819;SDS011;392;48.838;2.322;2023-05-18T14:44:05;7.43;;;6.70;;
819;SDS011;392;48.838;2.322;2023-05-18T14:46:34;8.77;;;6.40;;
819;SDS011;392;48.838;2.322;2023-05-18T14:49:02;7.57;;;6.37;;
819;SDS011;392;48.838;2.322;2023-05-18T14:51:29;6.83;;;6.23;;
819;SDS011;392;48.838;2.322;2023-05-18T14:53:56;6.97;;;6.37;;
819;SDS011;392;48.838;2.322;2023-05-18T14:56:23;6.97;;;6.30;;
819;SDS011;392;48.838;2.322;2023-05-18T14:58:52;7.13;;;6.50;;
819;SDS011;392;48.838;2.322;2023-05-18T15:01:19;8.00;;;7.30;;
819;SDS011;392;48.838;2.322;2023-05-18T15:03:46;7.87;;;7.17;;
819;SDS011;392;48.838;2.322;2023-05-18T15:06:13;6.97;;;6.27;;
819;SDS011;392;48.838;2.322;2023-05-18T15:08:41;6.93;;;5.93;;
819;SDS011;392;48.838;2.322;2023-05-18T15:11:09;7.63;;;6.47;;
819;SDS011;392;48.838;2.322;2023-05-18T15:13:36;6.43;;;5.83;;
819;SDS011;392;48.838;2.322;2023-05-18T15:16:06;6.60;;;6.00;;
819;SDS011;392;48.838;2.322;2023-05-18T15:18:33;6.10;;;5.60;;
819;SDS011;392;48.838;2.322;2023-05-18T15:21:00;6.00;;;5.40;;
819;SDS011;392;48.838;2.322;2023-05-18T15:23:27;6.63;;;5.37;;
819;SDS011;392;48.838;2.322;2023-05-18T15:25:55;5.70;;;5.13;;
819;SDS011;392;48.838;2.322;2023-05-18T15:28:22;6.10;;;5.50;;
819;SDS011;392;48.838;2.322;2023-05-18T15:30:49;6.47;;;5.87;;
819;SDS011;392;48.838;2.322;2023-05-18T15:33:20;6.23;;;5.63;;
819;SDS011;392;48.838;2.322;2023-05-18T15:35:47;6.57;;;5.87;;
819;SDS011;392;48.838;2.322;2023-05-18T15:38:15;6.10;;;5.60;;
819;SDS011;392;48.838;2.322;2023-05-18T15:40:42;6.17;;;5.60;;
819;SDS011;392;48.838;2.322;2023-05-18T15:43:12;5.60;;;5.10;;
819;SDS011;392;48.838;2.322;2023-05-18T15:45:39;7.67;;;5.87;;
819;SDS011;392;48.838;2.322;2023-05-18T15:48:06;5.20;;;4.80;;
819;SDS011;392;48.838;2.322;2023-05-18T15:50:35;7.80;;;7.07;;
819;SDS011;392;48.838;2.322;2023-05-18T15:53:02;6.97;;;6.37;;
819;SDS011;392;48.838;2.322;2023-05-18T15:55:30;6.57;;;5.97;;
819;SDS011;392;48.838;2.322;2023-05-18T15:57:57;8.80;;;5.90;;
819;SDS011;392;48.838;2.322;2023-05-18T16:00:24;6.63;;;6.03;;